DAL1556 KATL-KBOS
Flight info
| Callsign | DAL1556 |
|---|---|
| Flight time | 1h 49m |
| Altitude | 41000 |
| Route | PLMMR3 BURGG Q22 RBV Q419 JFK ROBUC3 |
| Aircraft | A359/H-SDE2E3GHIJ3J4J5LM1ORWXY/LB1D1 |
Departure
| Time | 2026-05-07 23:08 |
|---|---|
| Airport | Hartsfield Jackson Atlanta International Airport (KATL) |
Arrival
| Time | 2026-05-08 00:57 |
|---|---|
| Airport | Boston Logan International Airport (KBOS) |
| Time | Latitude | Longitude | Altitude | Speed | Heading |
|---|---|---|---|---|---|
| 2026-05-07 22:39 | 33.63975 | -84.43861 | 1013 ft | 0 kts | 270° |
| 2026-05-07 22:53 | 33.63975 | -84.43848 | 1013 ft | 3 kts | 270° |
| 2026-05-07 22:53 | 33.63975 | -84.43826 | 1013 ft | 3 kts | 270° |
| 2026-05-07 22:53 | 33.63975 | -84.43803 | 1013 ft | 3 kts | 270° |
| 2026-05-07 22:54 | 33.63975 | -84.43781 | 1013 ft | 3 kts | 270° |
| 2026-05-07 22:54 | 33.63975 | -84.43759 | 1013 ft | 3 kts | 270° |
| 2026-05-07 22:54 | 33.63975 | -84.43754 | 1013 ft | 0 kts | 270° |
| 2026-05-07 22:57 | 33.63974 | -84.43755 | 1013 ft | 0 kts | 266° |
| 2026-05-07 22:58 | 33.63971 | -84.43759 | 1013 ft | 2 kts | 243° |
| 2026-05-07 22:58 | 33.63938 | -84.43781 | 1016 ft | 9 kts | 196° |
| 2026-05-07 22:58 | 33.63870 | -84.43788 | 1013 ft | 11 kts | 180° |
| 2026-05-07 22:58 | 33.63834 | -84.43788 | 1013 ft | 0 kts | 180° |
| 2026-05-07 23:01 | 33.63807 | -84.43788 | 1013 ft | 8 kts | 180° |
| 2026-05-07 23:02 | 33.63729 | -84.43788 | 1014 ft | 13 kts | 177° |
| 2026-05-07 23:02 | 33.63669 | -84.43721 | 1015 ft | 13 kts | 102° |
| 2026-05-07 23:02 | 33.63665 | -84.43590 | 1015 ft | 18 kts | 90° |
| 2026-05-07 23:02 | 33.63665 | -84.43429 | 1015 ft | 21 kts | 90° |
| 2026-05-07 23:03 | 33.63665 | -84.43346 | 1035 ft | 2 kts | 90° |
| 2026-05-07 23:03 | 33.63666 | -84.43303 | 1041 ft | 16 kts | 90° |
| 2026-05-07 23:03 | 33.63665 | -84.43156 | 1041 ft | 19 kts | 90° |
| 2026-05-07 23:03 | 33.63664 | -84.42985 | 1041 ft | 22 kts | 90° |
| 2026-05-07 23:04 | 33.63666 | -84.42795 | 1042 ft | 23 kts | 94° |
| 2026-05-07 23:04 | 33.63656 | -84.42597 | 1042 ft | 24 kts | 90° |
| 2026-05-07 23:04 | 33.63657 | -84.42390 | 1042 ft | 26 kts | 89° |
| 2026-05-07 23:04 | 33.63657 | -84.42166 | 1042 ft | 27 kts | 91° |
| 2026-05-07 23:05 | 33.63656 | -84.41932 | 1042 ft | 29 kts | 90° |
| 2026-05-07 23:05 | 33.63656 | -84.41689 | 1041 ft | 29 kts | 90° |
| 2026-05-07 23:05 | 33.63656 | -84.41439 | 1041 ft | 31 kts | 90° |
| 2026-05-07 23:05 | 33.63656 | -84.41176 | 1041 ft | 32 kts | 90° |
| 2026-05-07 23:06 | 33.63656 | -84.40945 | 1042 ft | 19 kts | 90° |
| 2026-05-07 23:06 | 33.63650 | -84.40787 | 1042 ft | 17 kts | 107° |
| 2026-05-07 23:06 | 33.63565 | -84.40747 | 1042 ft | 14 kts | 175° |
| 2026-05-07 23:06 | 33.63484 | -84.40772 | 1042 ft | 10 kts | 234° |
| 2026-05-07 23:07 | 33.63470 | -84.40851 | 1042 ft | 12 kts | 269° |
| 2026-05-07 23:07 | 33.63471 | -84.41053 | 1041 ft | 49 kts | 270° |
| 2026-05-07 23:07 | 33.63471 | -84.41752 | 1041 ft | 116 kts | 270° |
| 2026-05-07 23:07 | 33.63478 | -84.42954 | 1105 ft | 164 kts | 274° |
| 2026-05-07 23:08 | 33.63454 | -84.44327 | 1833 ft | 163 kts | 272° |
| 2026-05-07 23:08 | 33.63397 | -84.45685 | 2604 ft | 171 kts | 268° |
| 2026-05-07 23:08 | 33.63218 | -84.47239 | 2913 ft | 207 kts | 261° |
| 2026-05-07 23:08 | 33.62783 | -84.49014 | 3378 ft | 235 kts | 251° |
| 2026-05-07 23:09 | 33.62087 | -84.50834 | 4195 ft | 244 kts | 246° |
| 2026-05-07 23:09 | 33.61302 | -84.52664 | 5049 ft | 249 kts | 245° |
| 2026-05-07 23:09 | 33.60509 | -84.54507 | 6029 ft | 247 kts | 246° |
| 2026-05-07 23:09 | 33.59655 | -84.56287 | 7011 ft | 248 kts | 238° |
| 2026-05-07 23:10 | 33.58387 | -84.57731 | 7939 ft | 259 kts | 218° |
| 2026-05-07 23:10 | 33.56650 | -84.58472 | 8893 ft | 275 kts | 195° |
| 2026-05-07 23:10 | 33.54690 | -84.58579 | 9741 ft | 288 kts | 188° |
| 2026-05-07 23:10 | 33.52659 | -84.58545 | 10515 ft | 293 kts | 188° |
| 2026-05-07 23:11 | 33.50629 | -84.58505 | 11335 ft | 299 kts | 189° |
| 2026-05-07 23:11 | 33.48483 | -84.58135 | 12126 ft | 322 kts | 172° |
| 2026-05-07 23:11 | 33.46507 | -84.56733 | 12836 ft | 354 kts | 144° |
| 2026-05-07 23:11 | 33.45004 | -84.54226 | 13217 ft | 390 kts | 117° |
| 2026-05-07 23:12 | 33.44348 | -84.50980 | 13501 ft | 414 kts | 92° |
| 2026-05-07 23:12 | 33.44585 | -84.47500 | 13801 ft | 428 kts | 77° |
| 2026-05-07 23:12 | 33.45016 | -84.43887 | 14123 ft | 445 kts | 81° |
| 2026-05-07 23:12 | 33.45291 | -84.40164 | 14662 ft | 453 kts | 83° |
| 2026-05-07 23:13 | 33.45760 | -84.36430 | 15244 ft | 455 kts | 72° |
| 2026-05-07 23:13 | 33.46876 | -84.32900 | 15800 ft | 452 kts | 56° |
| 2026-05-07 23:13 | 33.48645 | -84.29836 | 16352 ft | 444 kts | 40° |
| 2026-05-07 23:13 | 33.50778 | -84.27166 | 16910 ft | 445 kts | 36° |
| 2026-05-07 23:14 | 33.52988 | -84.24532 | 17454 ft | 451 kts | 36° |
| 2026-05-07 23:14 | 33.55223 | -84.21854 | 18063 ft | 457 kts | 37° |
| 2026-05-07 23:14 | 33.57485 | -84.19123 | 18525 ft | 465 kts | 37° |
| 2026-05-07 23:14 | 33.59768 | -84.16350 | 19051 ft | 469 kts | 37° |
| 2026-05-07 23:15 | 33.62056 | -84.13560 | 19645 ft | 471 kts | 37° |
| 2026-05-07 23:15 | 33.64364 | -84.10741 | 20246 ft | 474 kts | 37° |
| 2026-05-07 23:15 | 33.66679 | -84.07910 | 20840 ft | 478 kts | 37° |
| 2026-05-07 23:15 | 33.69018 | -84.05046 | 21409 ft | 481 kts | 37° |
| 2026-05-07 23:16 | 33.71366 | -84.02170 | 21981 ft | 485 kts | 37° |
| 2026-05-07 23:16 | 33.73734 | -83.99266 | 22571 ft | 488 kts | 38° |
| 2026-05-07 23:16 | 33.76118 | -83.96340 | 23151 ft | 492 kts | 38° |
| 2026-05-07 23:16 | 33.78523 | -83.93385 | 23716 ft | 496 kts | 38° |
| 2026-05-07 23:17 | 33.80945 | -83.90407 | 24220 ft | 500 kts | 37° |
| 2026-05-07 23:17 | 33.83388 | -83.87401 | 24649 ft | 506 kts | 37° |
| 2026-05-07 23:17 | 33.85862 | -83.84356 | 25121 ft | 510 kts | 37° |
| 2026-05-07 23:17 | 33.88346 | -83.81294 | 25633 ft | 514 kts | 37° |
| 2026-05-07 23:18 | 33.90856 | -83.78197 | 26103 ft | 518 kts | 37° |
| 2026-05-07 23:18 | 33.93381 | -83.75078 | 26589 ft | 522 kts | 37° |
| 2026-05-07 23:18 | 33.95825 | -83.71793 | 27061 ft | 533 kts | 44° |
| 2026-05-07 23:18 | 33.98065 | -83.68261 | 27505 ft | 540 kts | 46° |
| 2026-05-07 23:19 | 34.00303 | -83.64610 | 27960 ft | 544 kts | 46° |
| 2026-05-07 23:19 | 34.02559 | -83.60919 | 28406 ft | 548 kts | 46° |
| 2026-05-07 23:19 | 34.04829 | -83.57208 | 28885 ft | 552 kts | 46° |
| 2026-05-07 23:19 | 34.07121 | -83.53463 | 29231 ft | 558 kts | 46° |
| 2026-05-07 23:20 | 34.09434 | -83.49680 | 29645 ft | 562 kts | 46° |
| 2026-05-07 23:20 | 34.11760 | -83.45873 | 30080 ft | 565 kts | 46° |
| 2026-05-07 23:20 | 34.14101 | -83.42040 | 30406 ft | 569 kts | 47° |
| 2026-05-07 23:20 | 34.16455 | -83.38182 | 30750 ft | 572 kts | 47° |
| 2026-05-07 23:21 | 34.18822 | -83.34298 | 31087 ft | 576 kts | 47° |
| 2026-05-07 23:21 | 34.20393 | -83.31718 | 31302 ft | 578 kts | 47° |
| 2026-05-07 23:21 | 34.22779 | -83.27796 | 31641 ft | 581 kts | 47° |
| 2026-05-07 23:21 | 34.25177 | -83.23850 | 31953 ft | 584 kts | 47° |
| 2026-05-07 23:22 | 34.27585 | -83.19882 | 32281 ft | 587 kts | 47° |
| 2026-05-07 23:22 | 34.30003 | -83.15895 | 32664 ft | 589 kts | 46° |
| 2026-05-07 23:22 | 34.32434 | -83.11898 | 32949 ft | 591 kts | 46° |
| 2026-05-07 23:22 | 34.34889 | -83.07893 | 33225 ft | 594 kts | 46° |
| 2026-05-07 23:23 | 34.37344 | -83.03881 | 33648 ft | 593 kts | 46° |
| 2026-05-07 23:23 | 34.39794 | -82.99871 | 34049 ft | 592 kts | 46° |
| 2026-05-07 23:23 | 34.42242 | -82.95858 | 34390 ft | 592 kts | 46° |
| 2026-05-07 23:23 | 34.44689 | -82.91845 | 34700 ft | 592 kts | 46° |
| 2026-05-07 23:24 | 34.47139 | -82.87822 | 35026 ft | 592 kts | 46° |
| 2026-05-07 23:24 | 34.49583 | -82.83805 | 35339 ft | 592 kts | 46° |
| 2026-05-07 23:24 | 34.52022 | -82.79791 | 35657 ft | 592 kts | 46° |
| 2026-05-07 23:24 | 34.54465 | -82.75764 | 36009 ft | 592 kts | 46° |
| 2026-05-07 23:25 | 34.56907 | -82.71737 | 36298 ft | 593 kts | 46° |
| 2026-05-07 23:25 | 34.59318 | -82.67756 | 36601 ft | 592 kts | 46° |
| 2026-05-07 23:25 | 34.61783 | -82.63678 | 36899 ft | 592 kts | 46° |
| 2026-05-07 23:25 | 34.64190 | -82.59696 | 37170 ft | 592 kts | 46° |
| 2026-05-07 23:26 | 34.66622 | -82.55666 | 37435 ft | 592 kts | 46° |
| 2026-05-07 23:26 | 34.69046 | -82.51606 | 37710 ft | 593 kts | 47° |
| 2026-05-07 23:26 | 34.71438 | -82.47519 | 37995 ft | 593 kts | 47° |
| 2026-05-07 23:26 | 34.73827 | -82.43426 | 38254 ft | 593 kts | 47° |
| 2026-05-07 23:27 | 34.78596 | -82.35264 | 38921 ft | 589 kts | 47° |
| 2026-05-07 23:27 | 34.80960 | -82.31216 | 39188 ft | 587 kts | 46° |
| 2026-05-07 23:27 | 34.83324 | -82.27169 | 39378 ft | 587 kts | 46° |
| 2026-05-07 23:28 | 34.85691 | -82.23113 | 39568 ft | 587 kts | 46° |
| 2026-05-07 23:28 | 34.88049 | -82.19068 | 39757 ft | 586 kts | 46° |
| 2026-05-07 23:28 | 34.90411 | -82.15013 | 39953 ft | 586 kts | 47° |
| 2026-05-07 23:28 | 34.92764 | -82.10967 | 40141 ft | 586 kts | 46° |
| 2026-05-07 23:29 | 34.95122 | -82.06908 | 40323 ft | 585 kts | 47° |
| 2026-05-07 23:29 | 34.97477 | -82.02850 | 40504 ft | 585 kts | 47° |
| 2026-05-07 23:29 | 34.99827 | -81.98795 | 40731 ft | 585 kts | 46° |
| 2026-05-07 23:29 | 35.02179 | -81.94735 | 40797 ft | 587 kts | 46° |
| 2026-05-07 23:30 | 35.06959 | -81.86665 | 40884 ft | 585 kts | 44° |
| 2026-05-07 23:30 | 35.11890 | -81.78798 | 40870 ft | 583 kts | 43° |
| 2026-05-07 23:31 | 35.16801 | -81.70982 | 40906 ft | 583 kts | 44° |
| 2026-05-07 23:31 | 35.21708 | -81.63079 | 40970 ft | 583 kts | 44° |
| 2026-05-07 23:32 | 35.26600 | -81.55136 | 40853 ft | 584 kts | 44° |
| 2026-05-07 23:32 | 35.31488 | -81.47174 | 40856 ft | 585 kts | 44° |
| 2026-05-07 23:33 | 35.36374 | -81.39200 | 40887 ft | 585 kts | 44° |
| 2026-05-07 23:33 | 35.41222 | -81.31273 | 40908 ft | 585 kts | 44° |
| 2026-05-07 23:34 | 35.46106 | -81.23271 | 40934 ft | 586 kts | 44° |
| 2026-05-07 23:34 | 35.50999 | -81.15239 | 40922 ft | 588 kts | 44° |
| 2026-05-07 23:35 | 35.55889 | -81.07191 | 40929 ft | 588 kts | 45° |
| 2026-05-07 23:35 | 35.60777 | -80.99136 | 40929 ft | 588 kts | 45° |
| 2026-05-07 23:36 | 35.65659 | -80.91059 | 40943 ft | 588 kts | 45° |
| 2026-05-07 23:36 | 35.70529 | -80.82979 | 40939 ft | 588 kts | 45° |
| 2026-05-07 23:37 | 35.75402 | -80.74878 | 40942 ft | 588 kts | 45° |
| 2026-05-07 23:37 | 35.80264 | -80.66781 | 40906 ft | 588 kts | 45° |
| 2026-05-07 23:38 | 35.85089 | -80.58728 | 40904 ft | 588 kts | 45° |
| 2026-05-07 23:38 | 35.89941 | -80.50610 | 40885 ft | 588 kts | 45° |
| 2026-05-07 23:39 | 35.94788 | -80.42480 | 40894 ft | 587 kts | 45° |
| 2026-05-07 23:39 | 35.99627 | -80.34354 | 40892 ft | 587 kts | 45° |
| 2026-05-07 23:40 | 36.04475 | -80.26212 | 40897 ft | 587 kts | 45° |
| 2026-05-07 23:40 | 36.09308 | -80.18080 | 40896 ft | 587 kts | 45° |
| 2026-05-07 23:41 | 36.14145 | -80.09922 | 40904 ft | 588 kts | 45° |
| 2026-05-07 23:41 | 36.18981 | -80.01749 | 40916 ft | 588 kts | 45° |
| 2026-05-07 23:42 | 36.23812 | -79.93568 | 40914 ft | 589 kts | 45° |
| 2026-05-07 23:42 | 36.28635 | -79.85364 | 40937 ft | 589 kts | 45° |
| 2026-05-07 23:43 | 36.33454 | -79.77149 | 40946 ft | 589 kts | 45° |
| 2026-05-07 23:43 | 36.38275 | -79.68919 | 40939 ft | 590 kts | 45° |
| 2026-05-07 23:44 | 36.43099 | -79.60664 | 40913 ft | 590 kts | 46° |
| 2026-05-07 23:44 | 36.47874 | -79.52471 | 40914 ft | 590 kts | 46° |
| 2026-05-07 23:45 | 36.52682 | -79.44204 | 40963 ft | 590 kts | 46° |
| 2026-05-07 23:45 | 36.57481 | -79.35931 | 40934 ft | 590 kts | 46° |
| 2026-05-07 23:46 | 36.62278 | -79.27641 | 40933 ft | 590 kts | 46° |
| 2026-05-07 23:46 | 36.67070 | -79.19340 | 40930 ft | 590 kts | 46° |
| 2026-05-07 23:47 | 36.71864 | -79.11015 | 40927 ft | 590 kts | 46° |
| 2026-05-07 23:47 | 36.76646 | -79.02692 | 40915 ft | 590 kts | 46° |
| 2026-05-07 23:48 | 36.81424 | -78.94354 | 40919 ft | 590 kts | 46° |
| 2026-05-07 23:48 | 36.86191 | -78.86007 | 40917 ft | 591 kts | 46° |
| 2026-05-07 23:49 | 36.90931 | -78.77620 | 40916 ft | 591 kts | 47° |
| 2026-05-07 23:49 | 36.95634 | -78.69272 | 40934 ft | 591 kts | 47° |
| 2026-05-07 23:50 | 37.00364 | -78.60867 | 40937 ft | 591 kts | 47° |
| 2026-05-07 23:50 | 37.05088 | -78.52460 | 40936 ft | 591 kts | 47° |
| 2026-05-07 23:51 | 37.09815 | -78.44030 | 40929 ft | 591 kts | 47° |
| 2026-05-07 23:51 | 37.14536 | -78.35588 | 40972 ft | 591 kts | 47° |
| 2026-05-07 23:52 | 37.19233 | -78.27134 | 40916 ft | 592 kts | 49° |
| 2026-05-07 23:52 | 37.23424 | -78.18176 | 40919 ft | 597 kts | 54° |
| 2026-05-07 23:53 | 37.27476 | -78.09080 | 40921 ft | 597 kts | 55° |
| 2026-05-07 23:53 | 37.31495 | -77.99946 | 40921 ft | 597 kts | 55° |
| 2026-05-07 23:54 | 37.35514 | -77.90808 | 40939 ft | 597 kts | 55° |
| 2026-05-07 23:54 | 37.39528 | -77.81683 | 40932 ft | 596 kts | 55° |
| 2026-05-07 23:55 | 37.43545 | -77.72553 | 40936 ft | 596 kts | 55° |
| 2026-05-07 23:55 | 37.47517 | -77.63472 | 40934 ft | 596 kts | 55° |
| 2026-05-07 23:56 | 37.51511 | -77.54313 | 40925 ft | 596 kts | 55° |
| 2026-05-07 23:56 | 37.55492 | -77.45162 | 40924 ft | 594 kts | 56° |
| 2026-05-07 23:57 | 37.59451 | -77.36037 | 40917 ft | 592 kts | 56° |
| 2026-05-07 23:57 | 37.63397 | -77.26921 | 40918 ft | 592 kts | 56° |
| 2026-05-07 23:58 | 37.67491 | -77.17925 | 40930 ft | 585 kts | 47° |
| 2026-05-07 23:58 | 37.70081 | -77.14037 | 40935 ft | 571 kts | 35° |
| 2026-05-07 23:58 | 37.73086 | -77.10894 | 40932 ft | 553 kts | 23° |
| 2026-05-07 23:59 | 37.79582 | -77.06001 | 40930 ft | 545 kts | 18° |
| 2026-05-07 23:59 | 37.86242 | -77.01436 | 40938 ft | 544 kts | 17° |
| 2026-05-08 00:00 | 37.92919 | -76.96884 | 40963 ft | 544 kts | 17° |
| 2026-05-08 00:00 | 37.99570 | -76.92290 | 40922 ft | 544 kts | 18° |
| 2026-05-08 00:01 | 38.06207 | -76.87667 | 40916 ft | 544 kts | 18° |
| 2026-05-08 00:01 | 38.12835 | -76.83033 | 40911 ft | 544 kts | 18° |
| 2026-05-08 00:02 | 38.19459 | -76.78397 | 40912 ft | 543 kts | 19° |
| 2026-05-08 00:02 | 38.25908 | -76.73243 | 40913 ft | 557 kts | 30° |
| 2026-05-08 00:03 | 38.31941 | -76.66976 | 40906 ft | 560 kts | 32° |
| 2026-05-08 00:03 | 38.37846 | -76.60560 | 40922 ft | 561 kts | 33° |
| 2026-05-08 00:04 | 38.43773 | -76.54086 | 40911 ft | 560 kts | 32° |
| 2026-05-08 00:04 | 38.49725 | -76.47674 | 40899 ft | 560 kts | 32° |
| 2026-05-08 00:05 | 38.55701 | -76.41259 | 40960 ft | 561 kts | 32° |
| 2026-05-08 00:05 | 38.61667 | -76.34839 | 40907 ft | 560 kts | 32° |
| 2026-05-08 00:06 | 38.67630 | -76.28399 | 40905 ft | 560 kts | 32° |
| 2026-05-08 00:06 | 38.73578 | -76.21960 | 40903 ft | 560 kts | 32° |
| 2026-05-08 00:07 | 38.79525 | -76.15506 | 40909 ft | 560 kts | 33° |
| 2026-05-08 00:07 | 38.84466 | -76.10134 | 40904 ft | 560 kts | 33° |
| 2026-05-08 00:08 | 38.90404 | -76.03663 | 40906 ft | 560 kts | 33° |
| 2026-05-08 00:08 | 38.97311 | -75.96112 | 40923 ft | 561 kts | 33° |
| 2026-05-08 00:09 | 39.02177 | -75.90444 | 40885 ft | 564 kts | 36° |
| 2026-05-08 00:09 | 39.07889 | -75.83511 | 40876 ft | 565 kts | 36° |
| 2026-05-08 00:10 | 39.13570 | -75.76634 | 40864 ft | 564 kts | 36° |
| 2026-05-08 00:10 | 39.19318 | -75.69731 | 40874 ft | 565 kts | 36° |
| 2026-05-08 00:11 | 39.25118 | -75.62777 | 40870 ft | 566 kts | 36° |
| 2026-05-08 00:11 | 39.30841 | -75.55901 | 40869 ft | 566 kts | 36° |
| 2026-05-08 00:12 | 39.36599 | -75.48972 | 40882 ft | 566 kts | 36° |
| 2026-05-08 00:12 | 39.42357 | -75.42009 | 40833 ft | 567 kts | 36° |
| 2026-05-08 00:13 | 39.48112 | -75.35032 | 40861 ft | 567 kts | 36° |
| 2026-05-08 00:13 | 39.53868 | -75.28041 | 40899 ft | 566 kts | 36° |
| 2026-05-08 00:14 | 39.59618 | -75.21043 | 40861 ft | 567 kts | 37° |
| 2026-05-08 00:14 | 39.65370 | -75.14027 | 40862 ft | 567 kts | 37° |
| 2026-05-08 00:15 | 39.71151 | -75.07086 | 40863 ft | 565 kts | 34° |
| 2026-05-08 00:15 | 39.77094 | -75.00458 | 40863 ft | 563 kts | 33° |
| 2026-05-08 00:16 | 39.83071 | -74.93854 | 40864 ft | 564 kts | 33° |
| 2026-05-08 00:16 | 39.88990 | -74.87233 | 40862 ft | 562 kts | 32° |
| 2026-05-08 00:17 | 39.95245 | -74.81214 | 40865 ft | 558 kts | 28° |
| 2026-05-08 00:17 | 40.01562 | -74.75335 | 40853 ft | 560 kts | 30° |
| 2026-05-08 00:18 | 40.07274 | -74.68240 | 40869 ft | 571 kts | 40° |
| 2026-05-08 00:18 | 40.12667 | -74.60590 | 40852 ft | 572 kts | 42° |
| 2026-05-08 00:19 | 40.17985 | -74.52847 | 40847 ft | 573 kts | 43° |
| 2026-05-08 00:19 | 40.23737 | -74.45816 | 40865 ft | 564 kts | 33° |
| 2026-05-08 00:20 | 40.29788 | -74.39254 | 40909 ft | 564 kts | 32° |
| 2026-05-08 00:20 | 40.35873 | -74.32779 | 40867 ft | 563 kts | 32° |
| 2026-05-08 00:21 | 40.41951 | -74.26292 | 40864 ft | 564 kts | 32° |
| 2026-05-08 00:21 | 40.48034 | -74.19760 | 40910 ft | 565 kts | 33° |
| 2026-05-08 00:22 | 40.53657 | -74.12560 | 40868 ft | 578 kts | 49° |
| 2026-05-08 00:22 | 40.55780 | -74.08055 | 40866 ft | 583 kts | 62° |
| 2026-05-08 00:22 | 40.57268 | -74.03089 | 40870 ft | 585 kts | 71° |
| 2026-05-08 00:23 | 40.59701 | -73.92762 | 40792 ft | 587 kts | 73° |
| 2026-05-08 00:23 | 40.60867 | -73.87695 | 40357 ft | 586 kts | 73° |
| 2026-05-08 00:23 | 40.62082 | -73.82552 | 39577 ft | 589 kts | 70° |
| 2026-05-08 00:24 | 40.63727 | -73.77605 | 38774 ft | 591 kts | 58° |
| 2026-05-08 00:24 | 40.66058 | -73.73160 | 37858 ft | 589 kts | 45° |
| 2026-05-08 00:24 | 40.68747 | -73.69108 | 37068 ft | 586 kts | 43° |
| 2026-05-08 00:24 | 40.71478 | -73.65132 | 36350 ft | 584 kts | 43° |
| 2026-05-08 00:25 | 40.74205 | -73.61164 | 35681 ft | 582 kts | 42° |
| 2026-05-08 00:25 | 40.76918 | -73.57202 | 34971 ft | 581 kts | 42° |
| 2026-05-08 00:25 | 40.79628 | -73.53234 | 34183 ft | 582 kts | 42° |
| 2026-05-08 00:25 | 40.82336 | -73.49259 | 33403 ft | 583 kts | 42° |
| 2026-05-08 00:26 | 40.85038 | -73.45287 | 32449 ft | 583 kts | 42° |
| 2026-05-08 00:26 | 40.87748 | -73.41300 | 31548 ft | 584 kts | 43° |
| 2026-05-08 00:26 | 40.90462 | -73.37295 | 30627 ft | 584 kts | 43° |
| 2026-05-08 00:26 | 40.93169 | -73.33290 | 29655 ft | 585 kts | 43° |
| 2026-05-08 00:27 | 40.95832 | -73.29345 | 28951 ft | 578 kts | 43° |
| 2026-05-08 00:27 | 40.98522 | -73.25351 | 28368 ft | 570 kts | 44° |
| 2026-05-08 00:27 | 41.01111 | -73.21505 | 27743 ft | 563 kts | 44° |
| 2026-05-08 00:27 | 41.03705 | -73.17650 | 27109 ft | 557 kts | 44° |
| 2026-05-08 00:28 | 41.06277 | -73.13824 | 26492 ft | 552 kts | 44° |
| 2026-05-08 00:28 | 41.08815 | -73.10044 | 25868 ft | 546 kts | 44° |
| 2026-05-08 00:28 | 41.11328 | -73.06296 | 25256 ft | 541 kts | 44° |
| 2026-05-08 00:28 | 41.13821 | -73.02573 | 24638 ft | 536 kts | 45° |
| 2026-05-08 00:29 | 41.16285 | -72.98889 | 24064 ft | 531 kts | 45° |
| 2026-05-08 00:29 | 41.18731 | -72.95228 | 23449 ft | 527 kts | 45° |
| 2026-05-08 00:29 | 41.21026 | -72.91472 | 22763 ft | 523 kts | 54° |
| 2026-05-08 00:29 | 41.22794 | -72.87315 | 22582 ft | 512 kts | 62° |
| 2026-05-08 00:30 | 41.24414 | -72.83095 | 22527 ft | 514 kts | 63° |
| 2026-05-08 00:30 | 41.26029 | -72.78855 | 22456 ft | 514 kts | 63° |
| 2026-05-08 00:30 | 41.27645 | -72.74611 | 22367 ft | 514 kts | 63° |
| 2026-05-08 00:30 | 41.29260 | -72.70372 | 22238 ft | 513 kts | 63° |
| 2026-05-08 00:31 | 41.30872 | -72.66137 | 22137 ft | 513 kts | 63° |
| 2026-05-08 00:31 | 41.32486 | -72.61893 | 22016 ft | 513 kts | 63° |
| 2026-05-08 00:31 | 41.34068 | -72.57728 | 21867 ft | 512 kts | 63° |
| 2026-05-08 00:31 | 41.35671 | -72.53503 | 21760 ft | 511 kts | 63° |
| 2026-05-08 00:32 | 41.37268 | -72.49285 | 21647 ft | 510 kts | 63° |
| 2026-05-08 00:32 | 41.38862 | -72.45074 | 21523 ft | 509 kts | 63° |
| 2026-05-08 00:32 | 41.40453 | -72.40860 | 21416 ft | 508 kts | 63° |
| 2026-05-08 00:32 | 41.42038 | -72.36659 | 21291 ft | 507 kts | 63° |
| 2026-05-08 00:33 | 41.43616 | -72.32469 | 21170 ft | 506 kts | 63° |
| 2026-05-08 00:33 | 41.45195 | -72.28271 | 21049 ft | 505 kts | 63° |
| 2026-05-08 00:33 | 41.46767 | -72.24085 | 20907 ft | 504 kts | 63° |
| 2026-05-08 00:33 | 41.48336 | -72.19903 | 20760 ft | 504 kts | 63° |
| 2026-05-08 00:34 | 41.49880 | -72.15731 | 20384 ft | 501 kts | 64° |
| 2026-05-08 00:34 | 41.51404 | -72.11550 | 20029 ft | 499 kts | 64° |
| 2026-05-08 00:34 | 41.52919 | -72.07388 | 19697 ft | 497 kts | 64° |
| 2026-05-08 00:34 | 41.54425 | -72.03250 | 19343 ft | 494 kts | 64° |
| 2026-05-08 00:35 | 41.55925 | -71.99129 | 19000 ft | 492 kts | 64° |
| 2026-05-08 00:35 | 41.57277 | -71.94954 | 18667 ft | 489 kts | 70° |
| 2026-05-08 00:35 | 41.58496 | -71.90725 | 18328 ft | 487 kts | 70° |
| 2026-05-08 00:35 | 41.59713 | -71.86509 | 17985 ft | 485 kts | 70° |
| 2026-05-08 00:36 | 41.60936 | -71.82322 | 17773 ft | 483 kts | 70° |
| 2026-05-08 00:36 | 41.62148 | -71.78158 | 17470 ft | 480 kts | 70° |
| 2026-05-08 00:36 | 41.63344 | -71.74066 | 17246 ft | 465 kts | 70° |
| 2026-05-08 00:36 | 41.64504 | -71.70108 | 17031 ft | 451 kts | 69° |
| 2026-05-08 00:37 | 41.65633 | -71.66255 | 16787 ft | 438 kts | 69° |
| 2026-05-08 00:37 | 41.66716 | -71.62562 | 16463 ft | 415 kts | 69° |
| 2026-05-08 00:37 | 41.67737 | -71.59077 | 16164 ft | 391 kts | 69° |
| 2026-05-08 00:38 | 41.69707 | -71.52350 | 15402 ft | 387 kts | 69° |
| 2026-05-08 00:38 | 41.70681 | -71.49007 | 15123 ft | 386 kts | 69° |
| 2026-05-08 00:38 | 41.71653 | -71.45670 | 14865 ft | 383 kts | 68° |
| 2026-05-08 00:38 | 41.72712 | -71.42428 | 14586 ft | 378 kts | 60° |
| 2026-05-08 00:39 | 41.73980 | -71.39365 | 14328 ft | 375 kts | 58° |
| 2026-05-08 00:39 | 41.75277 | -71.36354 | 14071 ft | 372 kts | 58° |
| 2026-05-08 00:39 | 41.76565 | -71.33362 | 13824 ft | 370 kts | 58° |
| 2026-05-08 00:39 | 41.77843 | -71.30384 | 13555 ft | 367 kts | 58° |
| 2026-05-08 00:40 | 41.79107 | -71.27434 | 13280 ft | 363 kts | 57° |
| 2026-05-08 00:40 | 41.80358 | -71.24513 | 13008 ft | 361 kts | 58° |
| 2026-05-08 00:40 | 41.81597 | -71.21600 | 12779 ft | 358 kts | 58° |
| 2026-05-08 00:40 | 41.82825 | -71.18709 | 12517 ft | 355 kts | 58° |
| 2026-05-08 00:41 | 41.84041 | -71.15844 | 12270 ft | 352 kts | 58° |
| 2026-05-08 00:41 | 41.85235 | -71.13029 | 12094 ft | 342 kts | 58° |
| 2026-05-08 00:41 | 41.86402 | -71.10298 | 11865 ft | 334 kts | 57° |
| 2026-05-08 00:41 | 41.87546 | -71.07656 | 11629 ft | 330 kts | 57° |
| 2026-05-08 00:42 | 41.88695 | -71.05005 | 11431 ft | 328 kts | 57° |
| 2026-05-08 00:42 | 41.89840 | -71.02358 | 11221 ft | 326 kts | 57° |
| 2026-05-08 00:42 | 41.90974 | -70.99732 | 11029 ft | 324 kts | 57° |
| 2026-05-08 00:42 | 41.92100 | -70.97120 | 10830 ft | 322 kts | 57° |
| 2026-05-08 00:43 | 41.93217 | -70.94527 | 10631 ft | 320 kts | 57° |
| 2026-05-08 00:43 | 41.94325 | -70.91952 | 10443 ft | 317 kts | 57° |
| 2026-05-08 00:43 | 41.95425 | -70.89394 | 10255 ft | 315 kts | 57° |
| 2026-05-08 00:43 | 41.96517 | -70.86851 | 10044 ft | 313 kts | 57° |
| 2026-05-08 00:44 | 41.97603 | -70.84320 | 9853 ft | 313 kts | 57° |
| 2026-05-08 00:44 | 41.98687 | -70.81793 | 9667 ft | 311 kts | 57° |
| 2026-05-08 00:44 | 41.99762 | -70.79284 | 9460 ft | 308 kts | 57° |
| 2026-05-08 00:44 | 42.00852 | -70.76813 | 9269 ft | 305 kts | 53° |
| 2026-05-08 00:45 | 42.02159 | -70.74596 | 9101 ft | 301 kts | 45° |
| 2026-05-08 00:45 | 42.03555 | -70.72502 | 8920 ft | 299 kts | 44° |
| 2026-05-08 00:45 | 42.04952 | -70.70429 | 8733 ft | 298 kts | 45° |
| 2026-05-08 00:45 | 42.06341 | -70.68362 | 8563 ft | 296 kts | 45° |
| 2026-05-08 00:46 | 42.07699 | -70.66333 | 8382 ft | 295 kts | 45° |
| 2026-05-08 00:46 | 42.09067 | -70.64284 | 8196 ft | 294 kts | 45° |
| 2026-05-08 00:46 | 42.10521 | -70.62383 | 8019 ft | 289 kts | 33° |
| 2026-05-08 00:46 | 42.12322 | -70.61323 | 8016 ft | 281 kts | 9° |
| 2026-05-08 00:47 | 42.14239 | -70.60849 | 8128 ft | 281 kts | 5° |
| 2026-05-08 00:47 | 42.16169 | -70.60451 | 7939 ft | 280 kts | 5° |
| 2026-05-08 00:47 | 42.18087 | -70.60055 | 7697 ft | 278 kts | 5° |
| 2026-05-08 00:47 | 42.19992 | -70.59657 | 7430 ft | 276 kts | 5° |
| 2026-05-08 00:48 | 42.21874 | -70.59478 | 7174 ft | 265 kts | 351° |
| 2026-05-08 00:48 | 42.23621 | -70.60079 | 6845 ft | 257 kts | 338° |
| 2026-05-08 00:48 | 42.25301 | -70.60942 | 6379 ft | 259 kts | 336° |
| 2026-05-08 00:48 | 42.26977 | -70.61855 | 5848 ft | 261 kts | 336° |
| 2026-05-08 00:49 | 42.28669 | -70.62788 | 5334 ft | 262 kts | 336° |
| 2026-05-08 00:49 | 42.30325 | -70.63699 | 4820 ft | 252 kts | 336° |
| 2026-05-08 00:49 | 42.31918 | -70.64569 | 4306 ft | 242 kts | 336° |
| 2026-05-08 00:49 | 42.33454 | -70.65402 | 3814 ft | 234 kts | 336° |
| 2026-05-08 00:50 | 42.34954 | -70.66213 | 3303 ft | 233 kts | 336° |
| 2026-05-08 00:50 | 42.36452 | -70.67020 | 3022 ft | 228 kts | 336° |
| 2026-05-08 00:50 | 42.37879 | -70.67783 | 2982 ft | 212 kts | 336° |
| 2026-05-08 00:50 | 42.39199 | -70.68479 | 2980 ft | 195 kts | 335° |
| 2026-05-08 00:51 | 42.40217 | -70.69501 | 2980 ft | 182 kts | 303° |
| 2026-05-08 00:51 | 42.40731 | -70.71050 | 2984 ft | 181 kts | 288° |
| 2026-05-08 00:51 | 42.40936 | -70.72730 | 2977 ft | 185 kts | 262° |
| 2026-05-08 00:51 | 42.40528 | -70.74378 | 2986 ft | 185 kts | 252° |
| 2026-05-08 00:52 | 42.40100 | -70.76030 | 2987 ft | 186 kts | 255° |
| 2026-05-08 00:52 | 42.39753 | -70.77699 | 2985 ft | 178 kts | 259° |
| 2026-05-08 00:52 | 42.39472 | -70.79262 | 2954 ft | 167 kts | 259° |
| 2026-05-08 00:52 | 42.39210 | -70.80753 | 2793 ft | 160 kts | 260° |
| 2026-05-08 00:53 | 42.38951 | -70.82221 | 2521 ft | 162 kts | 260° |
| 2026-05-08 00:53 | 42.38687 | -70.83709 | 2293 ft | 163 kts | 261° |
| 2026-05-08 00:53 | 42.38509 | -70.84713 | 2144 ft | 162 kts | 260° |
| 2026-05-08 00:53 | 42.38252 | -70.86165 | 1908 ft | 160 kts | 260° |
| 2026-05-08 00:54 | 42.37995 | -70.87618 | 1704 ft | 154 kts | 261° |
| 2026-05-08 00:54 | 42.37756 | -70.88959 | 1499 ft | 139 kts | 261° |
| 2026-05-08 00:54 | 42.37541 | -70.90177 | 1313 ft | 127 kts | 261° |
| 2026-05-08 00:54 | 42.37343 | -70.91303 | 1143 ft | 121 kts | 260° |
| 2026-05-08 00:55 | 42.37147 | -70.92415 | 988 ft | 122 kts | 259° |
| 2026-05-08 00:55 | 42.36949 | -70.93541 | 825 ft | 124 kts | 258° |
| 2026-05-08 00:55 | 42.36747 | -70.94674 | 669 ft | 124 kts | 259° |
| 2026-05-08 00:55 | 42.36551 | -70.95786 | 514 ft | 119 kts | 260° |
| 2026-05-08 00:56 | 42.36365 | -70.96866 | 366 ft | 119 kts | 259° |
| 2026-05-08 00:56 | 42.36162 | -70.97958 | 203 ft | 121 kts | 260° |
| 2026-05-08 00:56 | 42.35966 | -70.99074 | 41 ft | 121 kts | 260° |
| 2026-05-08 00:56 | 42.35794 | -71.00065 | 32 ft | 88 kts | 256° |
| 2026-05-08 00:57 | 42.35764 | -71.00496 | 32 ft | 21 kts | 280° |
| 2026-05-08 00:57 | 42.35779 | -71.00625 | 32 ft | 7 kts | 278° |
| 2026-05-08 00:57 | 42.35786 | -71.00693 | 32 ft | 16 kts | 278° |
| 2026-05-08 00:57 | 42.35806 | -71.00872 | 32 ft | 0 kts | 279° |
| 2026-05-08 00:58 | 42.35811 | -71.00915 | 32 ft | 9 kts | 279° |
| 2026-05-08 00:58 | 42.35821 | -71.01006 | 32 ft | 11 kts | 278° |
| 2026-05-08 00:58 | 42.35824 | -71.01042 | 32 ft | 0 kts | 277° |
| 2026-05-08 00:59 | 42.35825 | -71.01044 | 32 ft | 2 kts | 277° |
| 2026-05-08 00:59 | 42.35829 | -71.01090 | 32 ft | 6 kts | 278° |
| 2026-05-08 00:59 | 42.35836 | -71.01153 | 32 ft | 8 kts | 278° |
| 2026-05-08 00:59 | 42.35844 | -71.01234 | 32 ft | 10 kts | 278° |
| 2026-05-08 01:00 | 42.35854 | -71.01338 | 32 ft | 12 kts | 278° |
| 2026-05-08 01:00 | 42.35899 | -71.01377 | 32 ft | 8 kts | 1° |
| 2026-05-08 01:00 | 42.35988 | -71.01347 | 32 ft | 17 kts | 19° |
| 2026-05-08 01:00 | 42.36097 | -71.01292 | 32 ft | 15 kts | 20° |
| 2026-05-08 01:01 | 42.36210 | -71.01238 | 32 ft | 19 kts | 19° |
| 2026-05-08 01:01 | 42.36316 | -71.01186 | 32 ft | 12 kts | 20° |
| 2026-05-08 01:01 | 42.36408 | -71.01142 | 32 ft | 16 kts | 20° |
| 2026-05-08 01:01 | 42.36496 | -71.01100 | 32 ft | 15 kts | 15° |
| 2026-05-08 01:02 | 42.36542 | -71.01139 | 32 ft | 8 kts | 295° |
| 2026-05-08 01:02 | 42.36569 | -71.01224 | 32 ft | 12 kts | 293° |
| 2026-05-08 01:02 | 42.36621 | -71.01281 | 32 ft | 8 kts | 15° |
| 2026-05-08 01:02 | 42.36691 | -71.01252 | 32 ft | 14 kts | 14° |
| 2026-05-08 01:03 | 42.36799 | -71.01281 | 32 ft | 19 kts | 320° |
| 2026-05-08 01:03 | 42.36893 | -71.01408 | 32 ft | 20 kts | 315° |
| 2026-05-08 01:03 | 42.36991 | -71.01547 | 32 ft | 19 kts | 314° |
| 2026-05-08 01:03 | 42.37082 | -71.01673 | 31 ft | 19 kts | 312° |
| 2026-05-08 01:04 | 42.37158 | -71.01823 | 32 ft | 20 kts | 302° |
| 2026-05-08 01:04 | 42.37233 | -71.01988 | 32 ft | 21 kts | 290° |
| 2026-05-08 01:04 | 42.37233 | -71.02065 | 32 ft | 1 kts | 244° |
| 2026-05-08 01:04 | 42.37207 | -71.02088 | 32 ft | 9 kts | 193° |
| 2026-05-08 01:05 | 42.37150 | -71.02086 | 32 ft | 5 kts | 176° |
| 2026-05-08 01:05 | 42.37143 | -71.02086 | 32 ft | 0 kts | 177° |
| 2026-05-08 01:05 | 42.37144 | -71.02086 | 32 ft | 0 kts | 177° |